createdAt,value
2022-11-24T00:03:12.686Z,-1.16
2022-11-24T00:08:15.988Z,-1.15
2022-11-24T00:13:19.092Z,-1.14
2022-11-24T00:18:22.098Z,-1.16
2022-11-24T00:23:25.307Z,-1.15
2022-11-24T00:28:28.512Z,-1.12
2022-11-24T00:33:31.823Z,-1.11
2022-11-24T00:38:35.440Z,-1.12
2022-11-24T00:43:38.751Z,-1.14
2022-11-24T00:48:42.411Z,-1.16
2022-11-24T00:53:45.678Z,-1.15
2022-11-24T00:58:48.507Z,-1.16
2022-11-24T01:03:51.891Z,-1.16
2022-11-24T01:08:57.246Z,-1.15
2022-11-24T01:14:00.251Z,-1.17
2022-11-24T01:19:04.184Z,-1.13
2022-11-24T01:24:07.871Z,-1.12
2022-11-24T01:29:12.392Z,-1.13
2022-11-24T01:34:15.746Z,-1.15
2022-11-24T01:39:19.364Z,-1.14
2022-11-24T01:44:25.895Z,-1.12
2022-11-24T01:49:47.181Z,-1.13
2022-11-24T01:54:55.495Z,-1.12
2022-11-24T02:00:08.187Z,-1.14
2022-11-24T02:05:26.913Z,-1.20
2022-11-24T02:10:30.422Z,-1.23
2022-11-24T02:15:35.849Z,-1.27
2022-11-24T02:20:39.091Z,-1.31
2022-11-24T02:25:56.736Z,-1.34
2022-11-24T02:31:01.358Z,-1.35
2022-11-24T02:36:04.687Z,-1.34
2022-11-24T02:41:13.224Z,-1.31
2022-11-24T02:46:16.895Z,-1.31
2022-11-24T02:51:20.149Z,-1.29
2022-11-24T02:56:23.358Z,-1.27
2022-11-24T03:01:27.583Z,-1.28
2022-11-24T03:06:30.797Z,-1.25
2022-11-24T03:11:33.903Z,-1.20
2022-11-24T03:16:37.010Z,-1.21
2022-11-24T03:21:40.014Z,-1.20
2022-11-24T03:26:43.220Z,-1.16
2022-11-24T03:31:46.322Z,-1.13
2022-11-24T03:36:49.737Z,-1.13
2022-11-24T03:41:53.148Z,-1.10
2022-11-24T03:46:56.253Z,-1.06
2022-11-24T03:52:02.686Z,-1.02
2022-11-24T03:57:09.840Z,-1.03
2022-11-24T04:02:13.025Z,-1.01
2022-11-24T04:07:16.874Z,-1.00
2022-11-24T04:12:38.814Z,-1.00
2022-11-24T04:17:42.438Z,-1.01
2022-11-24T04:22:45.741Z,-1.02
2022-11-24T04:27:53.763Z,-1.02
2022-11-24T04:32:57.584Z,-1.03
2022-11-24T04:38:03.455Z,-1.03
2022-11-24T04:43:07.175Z,-1.02
2022-11-24T04:48:10.586Z,-1.01
2022-11-24T04:53:14.001Z,-0.99
2022-11-24T04:58:17.206Z,-1.03
2022-11-24T05:03:20.309Z,-1.04
2022-11-24T05:08:23.627Z,-1.05
2022-11-24T05:13:26.829Z,-1.03
2022-11-24T05:18:29.934Z,-1.03
2022-11-24T05:23:33.246Z,-1.05
2022-11-24T05:28:36.558Z,-1.07
2022-11-24T05:33:40.172Z,-1.08
2022-11-24T05:38:43.279Z,-1.08
2022-11-24T05:43:47.100Z,-1.05
2022-11-24T05:48:50.371Z,-1.02
2022-11-24T05:53:53.412Z,-1.00
2022-11-24T05:58:56.517Z,-0.96
2022-11-24T06:03:59.832Z,-0.94
2022-11-24T06:09:03.247Z,-0.94
2022-11-24T06:14:10.909Z,-0.92
2022-11-24T06:19:15.189Z,-0.92
2022-11-24T06:24:18.600Z,-0.96
2022-11-24T06:29:21.755Z,-0.94
2022-11-24T06:34:24.912Z,-0.94
2022-11-24T06:39:28.237Z,-0.96
2022-11-24T06:44:32.416Z,-0.91
2022-11-24T06:49:35.867Z,-0.86
2022-11-24T06:54:39.585Z,-0.85
2022-11-24T06:59:42.907Z,-0.80
2022-11-24T07:04:46.411Z,-0.72
2022-11-24T07:09:49.618Z,-0.66
2022-11-24T07:14:52.723Z,-0.62
2022-11-24T07:19:56.035Z,-0.58
2022-11-24T07:24:59.344Z,-0.56
2022-11-24T07:30:02.556Z,-0.48
2022-11-24T07:35:07.450Z,-0.48
2022-11-24T07:40:12.188Z,-0.51
2022-11-24T07:45:16.885Z,-0.53
2022-11-24T07:50:20.400Z,-0.48
2022-11-24T07:55:23.608Z,-0.42
2022-11-24T08:00:28.043Z,-0.35
2022-11-24T08:05:31.250Z,-0.31
2022-11-24T08:10:34.458Z,-0.29
2022-11-24T08:15:37.770Z,-0.24
2022-11-24T08:20:41.079Z,-0.18
2022-11-24T08:25:44.391Z,-0.16
2022-11-24T08:30:47.699Z,-0.14
2022-11-24T08:35:50.912Z,-0.13
2022-11-24T08:40:54.322Z,-0.15
2022-11-24T08:46:00.419Z,-0.17
2022-11-24T08:51:12.575Z,-0.15
2022-11-24T08:56:15.927Z,-0.17
2022-11-24T09:01:19.407Z,-0.17
2022-11-24T09:06:26.741Z,-0.17
2022-11-24T09:11:31.040Z,-0.15
2022-11-24T09:16:34.662Z,-0.05
2022-11-24T09:21:39.233Z,0.03
2022-11-24T09:26:47.317Z,0.12
2022-11-24T09:31:51.176Z,0.26
2022-11-24T09:36:54.487Z,0.39
2022-11-24T09:42:06.907Z,0.40
2022-11-24T09:47:55.481Z,0.40
2022-11-24T09:53:26.645Z,0.42
2022-11-24T09:58:52.584Z,0.42
2022-11-24T10:04:01.122Z,0.56
2022-11-24T10:09:41.191Z,0.72
2022-11-24T10:14:55.557Z,0.92
2022-11-24T10:20:07.105Z,0.99
2022-11-24T10:25:26.659Z,1.04
2022-11-24T10:30:31.611Z,1.01
2022-11-24T10:35:47.298Z,1.01
2022-11-24T10:41:03.821Z,0.98
2022-11-24T10:46:23.356Z,0.93
2022-11-24T10:51:30.874Z,0.86
2022-11-24T10:56:42.259Z,0.76
2022-11-24T11:01:45.638Z,0.66
2022-11-24T11:06:49.046Z,0.57
2022-11-24T11:11:53.584Z,0.50
2022-11-24T11:16:58.225Z,0.35
2022-11-24T11:22:10.340Z,0.31
2022-11-24T11:27:20.510Z,0.35
2022-11-24T11:37:54.783Z,0.37
2022-11-24T11:43:15.192Z,0.33
2022-11-24T11:48:36.972Z,0.21
2022-11-24T11:54:08.049Z,0.14
2022-11-24T11:59:26.668Z,0.09
2022-11-24T12:04:36.237Z,0.16
2022-11-24T12:10:06.107Z,0.27
2022-11-24T12:15:20.830Z,0.39
2022-11-24T12:20:49.023Z,0.51
2022-11-24T12:26:20.290Z,0.60
2022-11-24T12:31:29.183Z,0.70
2022-11-24T12:37:08.483Z,0.77
2022-11-24T12:42:38.213Z,0.81
2022-11-24T12:48:04.772Z,0.82
2022-11-24T12:53:10.945Z,0.77
2022-11-24T12:58:37.587Z,0.70
2022-11-24T13:04:00.683Z,0.57
2022-11-24T13:09:12.874Z,0.48
2022-11-24T13:14:19.356Z,0.47
2022-11-24T13:19:29.242Z,0.51
2022-11-24T13:24:37.916Z,0.51
2022-11-24T13:29:43.849Z,0.45
2022-11-24T13:34:55.260Z,0.41
2022-11-24T13:40:01.357Z,0.37
2022-11-24T13:45:10.175Z,0.33
2022-11-24T13:50:23.423Z,0.26
2022-11-24T13:55:34.063Z,0.26
2022-11-24T14:01:04.025Z,0.23
2022-11-24T14:06:18.288Z,0.19
2022-11-24T14:11:22.270Z,0.12
2022-11-24T14:16:26.293Z,0.01
2022-11-24T14:21:44.810Z,-0.02
2022-11-24T14:26:48.263Z,-0.02
2022-11-24T14:31:54.508Z,-0.08
2022-11-24T14:36:59.048Z,-0.06
2022-11-24T14:42:06.681Z,-0.10
2022-11-24T14:47:36.744Z,-0.13
2022-11-24T14:52:56.282Z,-0.16
2022-11-24T14:58:00.513Z,-0.16
2022-11-24T15:03:17.854Z,-0.15
2022-11-24T15:08:22.647Z,-0.14
2022-11-24T15:13:27.031Z,-0.13
2022-11-24T15:18:49.186Z,-0.08
2022-11-24T15:24:25.064Z,-0.03
2022-11-24T15:29:28.470Z,-0.01
2022-11-24T15:34:31.575Z,0.04
2022-11-24T15:39:35.194Z,0.05
2022-11-24T15:44:38.408Z,0.12
2022-11-24T15:49:41.610Z,0.17
2022-11-24T15:54:53.316Z,0.20
2022-11-24T15:59:56.628Z,0.23
2022-11-24T16:05:00.347Z,0.27
2022-11-24T16:10:08.309Z,0.26
2022-11-24T16:15:13.626Z,0.21
2022-11-24T16:20:16.933Z,0.10
2022-11-24T16:25:20.347Z,0.04
2022-11-24T16:30:23.557Z,0.02
2022-11-24T16:35:26.863Z,-0.01
2022-11-24T16:40:30.277Z,-0.05
2022-11-24T16:45:38.456Z,-0.12
2022-11-24T16:50:44.988Z,-0.10
2022-11-24T16:55:56.898Z,-0.08
2022-11-24T17:01:12.149Z,-0.05
2022-11-24T17:06:17.319Z,-0.02
2022-11-24T17:11:23.271Z,-0.02
2022-11-24T17:16:28.090Z,-0.01
2022-11-24T17:21:32.598Z,-0.03
2022-11-24T17:26:36.116Z,-0.01
2022-11-24T17:31:40.486Z,0.01
2022-11-24T17:36:46.218Z,0.04
2022-11-24T17:41:50.352Z,0.08
2022-11-24T17:46:54.067Z,0.12
2022-11-24T17:51:57.989Z,0.13
2022-11-24T17:57:01.716Z,0.09
2022-11-24T18:02:06.622Z,0.08
2022-11-24T18:07:10.157Z,0.06
2022-11-24T18:12:13.690Z,0.03
2022-11-24T18:17:17.308Z,-0.01
2022-11-24T18:22:36.682Z,-0.06
2022-11-24T18:27:44.201Z,-0.07
2022-11-24T18:32:47.825Z,-0.09
2022-11-24T18:37:51.926Z,-0.08
2022-11-24T18:42:55.629Z,-0.10
2022-11-24T18:48:00.021Z,-0.11
2022-11-24T18:53:03.519Z,-0.13
2022-11-24T18:58:06.937Z,-0.13
2022-11-24T19:03:10.450Z,-0.15
2022-11-24T19:08:13.966Z,-0.14
2022-11-24T19:13:17.479Z,-0.11
2022-11-24T19:18:21.610Z,-0.06
2022-11-24T19:23:25.020Z,0.02
2022-11-24T19:28:28.639Z,0.12
2022-11-24T19:33:33.077Z,0.16
2022-11-24T19:38:37.326Z,0.16
2022-11-24T19:43:41.955Z,0.12
2022-11-24T19:48:50.341Z,0.06
2022-11-24T19:53:54.575Z,0.01
2022-11-24T19:58:58.130Z,-0.03
2022-11-24T20:04:13.983Z,-0.05
2022-11-24T20:09:18.241Z,-0.04
2022-11-24T20:14:22.395Z,-0.06
2022-11-24T20:19:26.830Z,-0.09
2022-11-24T20:24:30.447Z,-0.11
2022-11-24T20:29:34.269Z,-0.15
2022-11-24T20:34:38.091Z,-0.15
2022-11-24T20:39:41.912Z,-0.14
2022-11-24T20:44:45.534Z,-0.09
2022-11-24T20:49:49.454Z,-0.03
2022-11-24T20:54:52.765Z,-0.00
2022-11-24T20:59:55.871Z,0.04
2022-11-24T21:04:59.182Z,0.06
2022-11-24T21:10:03.006Z,0.06
2022-11-24T21:15:09.873Z,0.01
2022-11-24T21:20:13.822Z,-0.07
2022-11-24T21:25:17.337Z,-0.12
2022-11-24T21:30:21.061Z,-0.15
2022-11-24T21:35:24.318Z,-0.14
2022-11-24T21:40:27.577Z,-0.09
2022-11-24T21:45:30.805Z,-0.01
2022-11-24T21:50:34.199Z,0.07
2022-11-24T21:55:37.300Z,0.15
2022-11-24T22:00:40.860Z,0.20
2022-11-24T22:05:56.933Z,0.23
2022-11-24T22:11:21.237Z,0.25
2022-11-24T22:16:26.042Z,0.26
2022-11-24T22:21:33.693Z,0.23
2022-11-24T22:26:37.720Z,0.15
2022-11-24T22:31:41.695Z,0.06
2022-11-24T22:36:44.848Z,0.05
2022-11-24T22:41:48.158Z,0.03
2022-11-24T22:46:51.777Z,-0.03
2022-11-24T22:51:54.984Z,-0.06
2022-11-24T22:56:58.194Z,-0.05
2022-11-24T23:02:01.298Z,-0.04
2022-11-24T23:07:04.916Z,-0.02
2022-11-24T23:12:08.943Z,-0.02
2022-11-24T23:17:12.047Z,-0.00
2022-11-24T23:22:15.257Z,0.00
2022-11-24T23:27:18.872Z,-0.01
2022-11-24T23:32:22.184Z,0.01
2022-11-24T23:37:39.361Z,0.01
2022-11-24T23:42:48.875Z,-0.02
2022-11-24T23:47:53.721Z,-0.09
2022-11-24T23:52:56.931Z,-0.08
2022-11-24T23:58:00.340Z,-0.04
